Details From RPLL - Manille Ninoy Aquino Intl
To RPVP - Puerto Princesa
Flight Number -
Tags Real Generated
Created
Modified
Stats Distance 316 nm / 586 km
Max Altitude 0 ft / 0 m
Waypoints 3
Social Downloads 6
Likes 0
Share

Download

Looking for another format? Having issues loading an existing format? Contact us
Advertisement - Login to hide

Notes

Generated

Route

RPLL GAMAN RPVP

ID Type Via Altitude (ft/m) Position (lat/lon) Dist (leg/tot) Name
O RPLL APT - 0 / 0 14.52421 / 121.00346 - / 0 nm
GAMAN FIX - 0 / 0 10.04513 / 118.89503 296 / 296 nm
O RPVP APT - 0 / 0 9.74263 / 118.74689 20 / 316 nm

Altitude Profile

Advertisement - Login to hide

Weather


0- 5 10 15 20 25 30 35+ Temperature / °C

Clouds and Precipitation
Forecast for 2021-03-22 12:00 UTC. Updated 24 days ago

Ground ~20,000 ft ~40,000 ft Winds

RPLL

Details ICAO RPLL (MNL)
Name Ninoy Aquino Intl
Region Philippines
Timezone Asia/Manila (UTC+8.0)
Stats Elevation 75 ft / 23 m (AMSL)
Location 14.511300° 121.013000°
Runways 2
Magnetic Variation 2.481° W

METAR

RPLL 150900Z 14009KT 090V210 9999 FEW025 BKN270 29/24 Q1008 NOSIG RMK A2977

Decode

TAF

TAF RPLL 150500Z 1506/1612 12005KT 9999 FEW025 BKN300 TX33/1506Z TN27/1521Z TEMPO 1506/1512 29007KT SCT025 BKN270 TEMPO 1512/1518 VRB02KT FEW025 SCT100

Decode

Departure Runways

ID Width Length Bearing (true/mag) Surface Threshold Overrun Markings Lighting
06 197 ft / 60 m 11,742 ft / 3,579 m 60.15° / 62.63° ASPHALT 545 ft / 166 m 0 ft / 0 m PREC-APP CENTERLINE EDGE THRESHOLD ALSF-I TDZ REIL-OMNI
13 144 ft / 44 m 7,729 ft / 2,356 m 134.96° / 137.44° ASPHALT 804 ft / 245 m 0 ft / 0 m PREC-APP CENTERLINE EDGE THRESHOLD REIL-OMNI
24 197 ft / 60 m 11,742 ft / 3,579 m 240.15° / 242.63° ASPHALT 0 ft / 0 m 0 ft / 0 m PREC-APP CENTERLINE EDGE THRESHOLD ALSF-I TDZ REIL-OMNI
31 144 ft / 44 m 7,729 ft / 2,356 m 314.96° / 317.44° ASPHALT 0 ft / 0 m 0 ft / 0 m VISUAL CENTERLINE EDGE THRESHOLD

RPVP

Details ICAO RPVP (PPS)
Name Puerto Princesa Intl
Region Philippines
Timezone Asia/Manila (UTC+8.0)
Stats Elevation 65 ft / 20 m (AMSL)
Location 9.742110° 118.759000°
Runways 1
Magnetic Variation 1.468° W

METAR

RPVP 150900Z 33010KT 9999 FEW019 BKN080 30/24 Q1008 RMK A2977

Decode

TAF

TAF RPVP 150500Z 1506/1606 29006KT 9999 FEW019 BKN240 TEMPO 1406/1412 27010KT 9000 -TSRA FEW017CB SCT019 OVC080

Decode

Destination Runways

ID Width Length Bearing (true/mag) Surface Threshold Overrun Markings Lighting
09 148 ft / 45 m 8,524 ft / 2,598 m 92.52° / 93.98° ASPHALT 718 ft / 219 m 203 ft / 62 m PREC-APP EDGE THRESHOLD MALS
27 148 ft / 45 m 8,524 ft / 2,598 m 272.52° / 273.99° ASPHALT 0 ft / 0 m 197 ft / 60 m PREC-APP EDGE THRESHOLD ALSF-I

Approach Navaids

Runway Type Ident Frequency Range Bearing (true/mag) Slope Elevation
27 GS IPR 110.10 MHz 10 nm / 19 km 272.52° / 273.99 ° 3.00° 65 ft / 20 m (AMSL)
27 LOC-ILS IPR 110.10 MHz 18 nm / 33 km 272.52° / 273.99 ° - 65 ft / 20 m (AMSL)

Popular Alternatives